createdAt,value
2022-10-20T00:00:01.709Z,100667.03
2022-10-20T00:02:29.434Z,100675.69
2022-10-20T00:04:57.050Z,100668.56
2022-10-20T00:07:24.372Z,100668.28
2022-10-20T00:09:51.830Z,100668.09
2022-10-20T00:12:19.417Z,100669.91
2022-10-20T00:14:46.759Z,100674.25
2022-10-20T00:17:14.121Z,100678.53
2022-10-20T00:19:41.677Z,100674.41
2022-10-20T00:22:08.992Z,100678.06
2022-10-20T00:24:36.285Z,100673.81
2022-10-20T00:27:03.894Z,100687.34
2022-10-20T00:29:31.232Z,100681.63
2022-10-20T00:31:58.546Z,100686.81
2022-10-20T00:34:26.123Z,100687.66
2022-10-20T00:36:53.457Z,100684.63
2022-10-20T00:39:20.797Z,100688.81
2022-10-20T00:41:48.387Z,100686.44
2022-10-20T00:44:53.213Z,100686.50
2022-10-20T00:47:40.719Z,100690.00
2022-10-20T00:50:13.340Z,100688.09
2022-10-20T00:52:40.987Z,100693.88
2022-10-20T00:55:08.672Z,100695.09
2022-10-20T00:57:36.193Z,100698.69
2022-10-20T01:00:05.965Z,100702.84
2022-10-20T01:02:33.261Z,100699.13
2022-10-20T01:05:00.802Z,100698.34
2022-10-20T01:07:28.389Z,100700.22
2022-10-20T01:09:55.809Z,100700.06
2022-10-20T01:12:32.600Z,100703.03
2022-10-20T01:18:17.350Z,100700.38
2022-10-20T01:21:17.392Z,100690.66
2022-10-20T01:24:07.881Z,100698.84
2022-10-20T01:26:47.572Z,100692.41
2022-10-20T01:29:23.868Z,100695.06
2022-10-20T01:32:17.190Z,100701.06
2022-10-20T01:34:59.421Z,100697.03
2022-10-20T01:38:16.478Z,100699.62
2022-10-20T01:40:51.286Z,100707.38
2022-10-20T01:43:20.060Z,100704.09
2022-10-20T01:45:47.896Z,100714.69
2022-10-20T01:48:16.692Z,100711.69
2022-10-20T01:50:44.288Z,100710.25
2022-10-20T01:53:11.627Z,100709.47
2022-10-20T01:55:39.123Z,100707.81
2022-10-20T01:58:11.576Z,100704.84
2022-10-20T02:00:38.901Z,100709.69
2022-10-20T02:03:13.454Z,100703.16
2022-10-20T02:06:05.630Z,100711.66
2022-10-20T02:08:48.061Z,100709.88
2022-10-20T02:11:48.203Z,100702.63
2022-10-20T02:14:16.395Z,100705.81
2022-10-20T02:16:47.133Z,100707.75
2022-10-20T02:19:14.549Z,100708.09
2022-10-20T02:21:42.165Z,100714.47
2022-10-20T02:24:09.564Z,100714.28
2022-10-20T02:26:37.921Z,100718.87
2022-10-20T02:29:10.914Z,100715.78
2022-10-20T02:31:38.238Z,100720.19
2022-10-20T02:34:05.813Z,100714.03
2022-10-20T02:36:38.265Z,100717.34
2022-10-20T02:39:06.023Z,100721.28
2022-10-20T02:41:33.388Z,100724.66
2022-10-20T02:44:00.775Z,100721.25
2022-10-20T02:46:28.415Z,100720.28
2022-10-20T02:48:55.726Z,100727.34
2022-10-20T02:51:23.017Z,100731.22
2022-10-20T02:53:50.612Z,100726.31
2022-10-20T02:56:18.127Z,100731.13
2022-10-20T02:58:45.457Z,100731.38
2022-10-20T03:01:13.081Z,100730.59
2022-10-20T03:03:40.441Z,100732.37
2022-10-20T03:06:12.031Z,100729.16
2022-10-20T03:08:39.671Z,100735.44
2022-10-20T03:11:07.019Z,100732.22
2022-10-20T03:13:34.465Z,100735.31
2022-10-20T03:16:02.180Z,100732.06
2022-10-20T03:18:29.492Z,100736.69
2022-10-20T03:20:56.835Z,100739.19
2022-10-20T03:23:24.428Z,100741.22
2022-10-20T03:25:51.717Z,100743.97
2022-10-20T03:28:19.208Z,100735.31
2022-10-20T03:30:47.158Z,100745.41
2022-10-20T03:33:14.464Z,100745.09
2022-10-20T03:35:41.809Z,100745.97
2022-10-20T03:38:09.382Z,100746.22
2022-10-20T03:40:36.691Z,100745.69
2022-10-20T03:43:04.022Z,100752.63
2022-10-20T03:45:31.590Z,100750.47
2022-10-20T03:47:58.933Z,100746.91
2022-10-20T03:50:26.354Z,100743.47
2022-10-20T03:52:53.934Z,100751.38
2022-10-20T03:55:21.287Z,100752.31
2022-10-20T03:57:48.605Z,100745.31
2022-10-20T04:00:16.238Z,100752.03
2022-10-20T04:02:44.883Z,100751.91
2022-10-20T04:05:16.603Z,100752.88
2022-10-20T04:07:44.179Z,100752.06
2022-10-20T04:10:11.750Z,100749.97
2022-10-20T04:12:39.507Z,100750.66
2022-10-20T04:15:08.034Z,100750.62
2022-10-20T04:17:36.833Z,100751.75
2022-10-20T04:20:05.456Z,100753.13
2022-10-20T04:22:33.138Z,100753.78
2022-10-20T04:25:00.596Z,100743.16
2022-10-20T04:27:28.325Z,100743.81
2022-10-20T04:29:55.903Z,100745.37
2022-10-20T04:32:23.258Z,100735.03
2022-10-20T04:34:50.621Z,100745.13
2022-10-20T04:37:18.234Z,100742.91
2022-10-20T04:39:45.795Z,100745.37
2022-10-20T04:42:13.107Z,100737.53
2022-10-20T04:44:40.686Z,100747.06
2022-10-20T04:47:08.002Z,100742.63
2022-10-20T04:49:35.342Z,100735.34
2022-10-20T04:52:03.065Z,100742.75
2022-10-20T04:54:30.372Z,100739.34
2022-10-20T04:56:57.750Z,100747.06
2022-10-20T04:59:25.360Z,100749.41
2022-10-20T05:01:52.721Z,100750.69
2022-10-20T05:04:21.912Z,100749.44
2022-10-20T05:06:49.632Z,100751.53
2022-10-20T05:09:17.067Z,100752.09
2022-10-20T05:11:44.472Z,100759.50
2022-10-20T05:14:12.048Z,100761.31
2022-10-20T05:16:39.405Z,100767.47
2022-10-20T05:19:06.995Z,100775.00
2022-10-20T05:21:34.697Z,100772.50
2022-10-20T05:24:03.438Z,100774.19
2022-10-20T05:26:34.494Z,100781.44
2022-10-20T05:29:06.145Z,100776.69
2022-10-20T05:31:36.811Z,100785.75
2022-10-20T05:34:04.467Z,100796.91
2022-10-20T05:36:31.790Z,100794.56
2022-10-20T05:38:59.309Z,100796.37
2022-10-20T05:41:33.358Z,100810.84
2022-10-20T05:44:04.759Z,100812.97
2022-10-20T05:46:34.622Z,100816.34
2022-10-20T05:49:02.579Z,100818.56
2022-10-20T05:51:31.959Z,100817.75
2022-10-20T05:53:59.708Z,100820.28
2022-10-20T05:56:27.841Z,100830.31
2022-10-20T05:58:55.257Z,100830.00
2022-10-20T06:01:27.613Z,100836.31
2022-10-20T06:03:59.228Z,100833.03
2022-10-20T06:06:29.206Z,100838.84
2022-10-20T06:08:57.920Z,100839.25
2022-10-20T06:11:25.408Z,100835.50
2022-10-20T06:13:53.306Z,100830.31
2022-10-20T06:16:22.174Z,100845.09
2022-10-20T06:18:49.921Z,100846.25
2022-10-20T06:21:21.455Z,100851.00
2022-10-20T06:23:49.161Z,100848.19
2022-10-20T06:26:18.464Z,100861.06
2022-10-20T06:28:47.051Z,100852.09
2022-10-20T06:31:14.549Z,100852.94
2022-10-20T06:33:42.001Z,100864.56
2022-10-20T06:36:09.590Z,100867.22
2022-10-20T06:38:37.362Z,100867.75
2022-10-20T06:41:05.223Z,100859.88
2022-10-20T06:43:32.662Z,100861.66
2022-10-20T06:46:08.191Z,100862.06
2022-10-20T06:48:35.617Z,100856.66
2022-10-20T06:51:08.341Z,100866.12
2022-10-20T06:53:36.291Z,100872.00
2022-10-20T06:56:06.310Z,100868.91
2022-10-20T06:58:34.650Z,100868.31
2022-10-20T07:01:05.553Z,100866.22
2022-10-20T07:03:37.514Z,100870.22
2022-10-20T07:06:05.501Z,100866.94
2022-10-20T07:08:33.775Z,100875.00
2022-10-20T07:11:02.417Z,100879.72
2022-10-20T07:13:30.064Z,100880.34
2022-10-20T07:15:57.841Z,100874.81
2022-10-20T07:18:26.092Z,100879.97
2022-10-20T07:20:57.195Z,100881.69
2022-10-20T07:23:25.274Z,100886.88
2022-10-20T07:25:52.776Z,100887.97
2022-10-20T07:28:21.794Z,100883.69
2022-10-20T07:30:49.436Z,100888.19
2022-10-20T07:33:16.797Z,100884.94
2022-10-20T07:35:44.222Z,100879.38
2022-10-20T07:38:11.830Z,100878.34
2022-10-20T07:40:39.150Z,100883.63
2022-10-20T07:43:06.506Z,100887.34
2022-10-20T07:45:34.093Z,100884.37
2022-10-20T07:48:02.046Z,100891.84
2022-10-20T07:50:29.393Z,100888.81
2022-10-20T07:52:57.038Z,100889.94
2022-10-20T07:55:38.200Z,100901.28
2022-10-20T07:58:06.566Z,100890.19
2022-10-20T08:00:33.986Z,100888.59
2022-10-20T08:03:01.762Z,100882.88
2022-10-20T08:05:29.642Z,100884.87
2022-10-20T08:07:58.317Z,100884.44
2022-10-20T08:10:26.003Z,100891.22
2022-10-20T08:12:53.381Z,100894.44
2022-10-20T08:15:20.719Z,100883.12
2022-10-20T08:17:48.311Z,100894.91
2022-10-20T08:20:22.481Z,100895.09
2022-10-20T08:22:52.560Z,100902.34
2022-10-20T08:25:19.885Z,100907.34
2022-10-20T08:27:47.367Z,100906.25
2022-10-20T08:30:29.912Z,100903.12
2022-10-20T08:33:02.884Z,100900.12
2022-10-20T08:35:37.085Z,100896.62
2022-10-20T08:38:06.071Z,100907.63
2022-10-20T08:40:34.241Z,100899.44
2022-10-20T08:43:01.592Z,100905.31
2022-10-20T08:45:29.444Z,100904.59
2022-10-20T08:47:57.793Z,100901.16
2022-10-20T08:50:28.010Z,100901.31
2022-10-20T08:52:57.640Z,100914.53
2022-10-20T08:55:32.478Z,100904.03
2022-10-20T08:58:05.237Z,100905.16
2022-10-20T09:00:33.083Z,100909.19
2022-10-20T09:03:17.645Z,100895.50
2022-10-20T09:05:53.256Z,100894.34
2022-10-20T09:08:20.725Z,100891.19
2022-10-20T09:11:09.326Z,100901.87
2022-10-20T09:13:37.083Z,100897.50
2022-10-20T09:16:28.569Z,100899.22
2022-10-20T09:19:07.769Z,100899.00
2022-10-20T09:21:35.364Z,100897.03
2022-10-20T09:24:05.108Z,100887.19
2022-10-20T09:26:54.645Z,100902.22
2022-10-20T09:29:34.857Z,100900.44
2022-10-20T09:32:16.792Z,100905.25
2022-10-20T09:34:49.801Z,100908.56
2022-10-20T09:37:18.903Z,100913.12
2022-10-20T09:39:58.596Z,100907.06
2022-10-20T09:42:31.687Z,100901.56
2022-10-20T09:45:07.568Z,100900.88
2022-10-20T09:47:35.164Z,100893.53
2022-10-20T09:50:04.554Z,100907.91
2022-10-20T09:52:40.691Z,100909.88
2022-10-20T09:55:15.543Z,100899.22
2022-10-20T09:57:47.111Z,100898.88
2022-10-20T10:00:36.869Z,100893.19
2022-10-20T10:03:21.065Z,100892.88
2022-10-20T10:05:56.183Z,100893.00
2022-10-20T10:08:26.044Z,100889.34
2022-10-20T10:11:04.657Z,100900.84
2022-10-20T10:13:38.833Z,100906.56
2022-10-20T10:16:10.519Z,100898.37
2022-10-20T10:18:38.446Z,100885.47
2022-10-20T10:21:13.880Z,100893.38
2022-10-20T10:24:30.961Z,100887.53
2022-10-20T10:26:58.498Z,100881.50
2022-10-20T10:29:35.713Z,100887.53
2022-10-20T10:32:14.966Z,100871.78
2022-10-20T10:35:02.442Z,100873.41
2022-10-20T10:37:32.381Z,100867.53
2022-10-20T10:40:13.539Z,100869.72
2022-10-20T10:42:55.991Z,100864.37
2022-10-20T10:45:41.946Z,100857.53
2022-10-20T10:48:45.620Z,100855.69
2022-10-20T10:51:20.961Z,100852.22
2022-10-20T10:54:11.989Z,100845.66
2022-10-20T10:56:50.819Z,100844.53
2022-10-20T10:59:23.139Z,100832.78
2022-10-20T11:01:59.792Z,100832.03
2022-10-20T11:04:36.378Z,100830.56
2022-10-20T11:07:32.396Z,100824.50
2022-10-20T11:10:21.469Z,100823.37
2022-10-20T11:13:27.056Z,100816.75
2022-10-20T11:16:08.006Z,100813.13
2022-10-20T11:18:50.849Z,100815.44
2022-10-20T11:21:46.656Z,100804.59
2022-10-20T11:24:32.411Z,100803.78
2022-10-20T11:27:12.187Z,100799.22
2022-10-20T11:30:15.385Z,100789.25
2022-10-20T11:32:48.211Z,100792.59
2022-10-20T11:35:30.105Z,100780.78
2022-10-20T11:38:20.532Z,100774.91
2022-10-20T11:40:51.225Z,100775.16
2022-10-20T11:43:39.831Z,100776.88
2022-10-20T11:46:10.621Z,100777.19
2022-10-20T11:48:51.698Z,100782.59
2022-10-20T11:51:31.918Z,100759.41
2022-10-20T11:54:08.591Z,100768.53
2022-10-20T11:56:45.304Z,100756.88
2022-10-20T11:59:30.509Z,100756.66
2022-10-20T12:02:19.197Z,100761.31
2022-10-20T12:04:49.895Z,100757.22
2022-10-20T12:08:11.013Z,100767.28
2022-10-20T12:11:08.867Z,100763.91
2022-10-20T12:13:39.013Z,100757.28
2022-10-20T12:16:06.825Z,100759.84
2022-10-20T12:18:35.261Z,100759.13
2022-10-20T12:21:03.635Z,100756.75
2022-10-20T12:23:43.574Z,100752.09
2022-10-20T12:26:31.996Z,100744.91
2022-10-20T12:29:07.452Z,100733.34
2022-10-20T12:32:12.576Z,100737.19
2022-10-20T12:34:41.157Z,100733.72
2022-10-20T12:37:09.261Z,100741.09
2022-10-20T12:39:36.622Z,100728.06
2022-10-20T12:42:05.303Z,100725.88
2022-10-20T12:44:40.761Z,100724.81
2022-10-20T12:47:08.741Z,100722.91
2022-10-20T12:49:40.673Z,100714.00
2022-10-20T12:52:15.501Z,100712.59
2022-10-20T12:54:48.327Z,100712.44
2022-10-20T12:57:41.353Z,100713.16
2022-10-20T13:00:24.041Z,100709.28
2022-10-20T13:02:52.857Z,100705.22
2022-10-20T13:05:20.371Z,100699.38
2022-10-20T13:07:50.229Z,100699.88
2022-10-20T13:10:27.178Z,100699.19
2022-10-20T13:13:01.053Z,100704.50
2022-10-20T13:15:35.730Z,100699.13
2022-10-20T13:18:19.985Z,100701.72
2022-10-20T13:21:03.587Z,100703.94
2022-10-20T13:23:37.517Z,100705.81
2022-10-20T13:26:18.229Z,100700.00
2022-10-20T13:28:46.990Z,100699.88
2022-10-20T13:31:33.564Z,100696.81
2022-10-20T13:34:22.048Z,100697.19
2022-10-20T13:37:21.679Z,100692.56
2022-10-20T13:40:10.562Z,100691.16
2022-10-20T13:43:06.719Z,100693.66
2022-10-20T13:45:41.704Z,100687.81
2022-10-20T13:48:15.105Z,100690.19
2022-10-20T13:50:43.811Z,100692.56
2022-10-20T13:53:25.959Z,100690.31
2022-10-20T13:56:16.360Z,100692.50
2022-10-20T13:59:05.898Z,100681.56
2022-10-20T14:01:34.959Z,100682.38
2022-10-20T14:04:02.928Z,100687.66
2022-10-20T14:06:32.164Z,100674.66
2022-10-20T14:09:20.288Z,100676.06
2022-10-20T14:11:50.489Z,100661.63
2022-10-20T14:14:20.773Z,100663.22
2022-10-20T14:17:05.385Z,100671.37
2022-10-20T14:19:33.554Z,100667.31
2022-10-20T14:22:11.673Z,100664.84
2022-10-20T14:24:42.260Z,100672.03
2022-10-20T14:27:18.805Z,100663.19
2022-10-20T14:29:46.238Z,100664.78
2022-10-20T14:32:21.818Z,100670.53
2022-10-20T14:34:56.352Z,100665.53
2022-10-20T14:37:50.850Z,100667.50
2022-10-20T14:40:27.150Z,100662.84
2022-10-20T14:43:00.112Z,100662.81
2022-10-20T14:45:39.407Z,100667.56
2022-10-20T14:48:09.634Z,100661.69
2022-10-20T14:50:37.607Z,100664.41
2022-10-20T14:53:25.832Z,100657.59
2022-10-20T14:55:54.720Z,100657.50
2022-10-20T14:58:36.940Z,100656.78
2022-10-20T15:01:24.741Z,100657.63
2022-10-20T15:04:15.304Z,100661.50
2022-10-20T15:06:43.597Z,100650.87
2022-10-20T15:09:25.036Z,100659.25
2022-10-20T15:11:52.612Z,100650.91
2022-10-20T15:14:19.979Z,100647.28
2022-10-20T15:16:48.432Z,100652.50
2022-10-20T15:19:24.976Z,100650.37
2022-10-20T15:22:10.938Z,100646.66
2022-10-20T15:24:38.514Z,100645.62
2022-10-20T15:27:06.278Z,100642.75
2022-10-20T15:29:33.635Z,100645.47
2022-10-20T15:32:01.282Z,100644.31
2022-10-20T15:34:28.627Z,100641.69
2022-10-20T15:36:55.985Z,100641.69
2022-10-20T15:39:23.563Z,100646.59
2022-10-20T15:41:53.746Z,100647.59
2022-10-20T15:44:22.258Z,100653.66
2022-10-20T15:46:53.516Z,100645.00
2022-10-20T15:49:21.121Z,100645.00
2022-10-20T15:51:48.470Z,100644.72
2022-10-20T15:54:18.030Z,100650.06
2022-10-20T15:56:45.387Z,100647.88
2022-10-20T15:59:12.770Z,100642.22
2022-10-20T16:01:40.450Z,100655.94
2022-10-20T16:04:23.269Z,100655.56
2022-10-20T16:06:57.627Z,100648.09
2022-10-20T16:09:26.868Z,100643.44
2022-10-20T16:11:54.225Z,100649.59
2022-10-20T16:14:21.578Z,100654.97
2022-10-20T16:16:49.185Z,100652.78
2022-10-20T16:19:16.524Z,100649.31
2022-10-20T16:21:43.848Z,100650.63
2022-10-20T16:24:11.508Z,100645.47
2022-10-20T16:26:38.842Z,100643.47
2022-10-20T16:29:06.173Z,100653.59
2022-10-20T16:31:33.759Z,100652.78
2022-10-20T16:34:01.136Z,100654.94
2022-10-20T16:36:28.441Z,100652.28
2022-10-20T16:38:56.845Z,100650.44
2022-10-20T16:41:24.229Z,100661.13
2022-10-20T16:43:51.599Z,100656.09
2022-10-20T16:46:19.255Z,100659.41
2022-10-20T16:48:48.216Z,100664.09
2022-10-20T16:51:16.057Z,100668.59
2022-10-20T16:53:43.879Z,100671.19
2022-10-20T16:56:15.197Z,100666.56
2022-10-20T16:58:45.878Z,100662.06
2022-10-20T17:01:13.625Z,100668.91
2022-10-20T17:06:15.533Z,100661.34
2022-10-20T17:08:42.960Z,100666.00
2022-10-20T17:11:15.912Z,100664.37
2022-10-20T17:13:46.154Z,100661.22
2022-10-20T17:16:23.611Z,100671.66
2022-10-20T17:18:54.153Z,100668.69
2022-10-20T17:21:21.672Z,100661.50
2022-10-20T17:23:49.028Z,100659.97
2022-10-20T17:26:21.233Z,100665.59
2022-10-20T17:28:52.185Z,100665.94
2022-10-20T17:31:19.826Z,100668.19
2022-10-20T17:33:47.262Z,100658.41
2022-10-20T17:36:14.720Z,100661.16
2022-10-20T17:38:42.444Z,100663.50
2022-10-20T17:41:14.064Z,100659.19
2022-10-20T17:43:41.738Z,100670.81
2022-10-20T17:46:13.426Z,100675.81
2022-10-20T17:48:40.802Z,100677.72
2022-10-20T17:51:21.848Z,100679.75
2022-10-20T17:53:50.390Z,100679.31
2022-10-20T17:56:18.822Z,100686.84
2022-10-20T17:58:47.165Z,100687.84
2022-10-20T18:01:15.310Z,100682.91
2022-10-20T18:03:43.158Z,100677.91
2022-10-20T18:06:11.434Z,100668.31
2022-10-20T18:08:38.822Z,100680.75
2022-10-20T18:11:33.230Z,100674.13
2022-10-20T18:14:00.661Z,100669.62
2022-10-20T18:16:30.187Z,100674.47
2022-10-20T18:21:30.755Z,100667.84
2022-10-20T18:24:02.014Z,100664.31
2022-10-20T18:26:30.670Z,100664.06
2022-10-20T18:28:58.206Z,100664.31
2022-10-20T18:31:26.516Z,100674.03
2022-10-20T18:34:02.562Z,100664.97
2022-10-20T18:36:33.236Z,100665.44
2022-10-20T18:39:00.910Z,100674.06
2022-10-20T18:41:35.338Z,100667.50
2022-10-20T18:44:02.910Z,100670.53
2022-10-20T18:46:30.867Z,100673.88
2022-10-20T18:48:58.262Z,100672.75
2022-10-20T18:51:26.181Z,100672.38
2022-10-20T18:53:55.183Z,100675.28
2022-10-20T18:56:23.730Z,100677.78
2022-10-20T18:58:52.748Z,100669.09
2022-10-20T19:01:21.964Z,100671.94
2022-10-20T19:03:50.289Z,100665.84
2022-10-20T19:06:27.563Z,100675.31
2022-10-20T19:08:56.348Z,100677.63
2022-10-20T19:11:25.811Z,100673.63
2022-10-20T19:13:53.173Z,100673.63
2022-10-20T19:16:22.265Z,100671.13
2022-10-20T19:18:51.246Z,100675.91
2022-10-20T19:23:53.196Z,100676.00
2022-10-20T19:26:22.555Z,100672.62
2022-10-20T19:28:58.387Z,100670.75
2022-10-20T19:31:38.195Z,100667.56
2022-10-20T19:34:13.894Z,100673.94
2022-10-20T19:36:41.534Z,100667.37
2022-10-20T19:39:09.896Z,100666.69
2022-10-20T19:41:37.405Z,100669.44
2022-10-20T19:44:05.174Z,100668.44
2022-10-20T19:46:32.620Z,100675.34
2022-10-20T19:48:59.990Z,100672.72
2022-10-20T19:51:27.615Z,100678.16
2022-10-20T19:53:54.934Z,100676.06
2022-10-20T19:56:22.231Z,100679.50
2022-10-20T19:58:49.848Z,100679.22
2022-10-20T20:01:17.262Z,100678.66
2022-10-20T20:03:45.100Z,100679.69
2022-10-20T20:06:17.279Z,100678.88
2022-10-20T20:08:45.972Z,100670.31
2022-10-20T20:11:23.358Z,100674.44
2022-10-20T20:13:51.594Z,100673.97
2022-10-20T20:16:18.995Z,100680.63
2022-10-20T20:18:46.417Z,100679.84
2022-10-20T20:21:14.458Z,100677.63
2022-10-20T20:23:58.307Z,100674.87
2022-10-20T20:26:28.275Z,100679.81
2022-10-20T20:28:55.625Z,100680.66
2022-10-20T20:31:22.965Z,100683.28
2022-10-20T20:33:50.586Z,100684.63
2022-10-20T20:36:17.968Z,100680.94
2022-10-20T20:38:45.638Z,100679.34
2022-10-20T20:41:14.809Z,100683.75
2022-10-20T20:43:45.025Z,100682.44
2022-10-20T20:46:16.880Z,100678.34
2022-10-20T20:48:44.316Z,100681.19
2022-10-20T20:51:12.287Z,100683.94
2022-10-20T20:53:40.040Z,100678.53
2022-10-20T20:56:09.585Z,100686.25
2022-10-20T20:58:36.957Z,100680.19
2022-10-20T21:01:05.230Z,100680.91
2022-10-20T21:03:32.775Z,100684.84
2022-10-20T21:06:07.625Z,100677.84
2022-10-20T21:08:36.601Z,100679.47
2022-10-20T21:11:08.045Z,100675.41
2022-10-20T21:13:35.936Z,100674.06
2022-10-20T21:16:15.702Z,100673.31
2022-10-20T21:18:44.458Z,100675.97
2022-10-20T21:21:16.854Z,100676.84
2022-10-20T21:23:44.446Z,100673.97
2022-10-20T21:26:12.502Z,100671.91
2022-10-20T21:28:40.127Z,100668.34
2022-10-20T21:31:08.875Z,100671.25
2022-10-20T21:33:36.446Z,100679.50
2022-10-20T21:36:05.011Z,100675.62
2022-10-20T21:38:33.051Z,100670.72
2022-10-20T21:41:08.127Z,100677.22
2022-10-20T21:43:36.651Z,100675.00
2022-10-20T21:46:17.255Z,100673.63
2022-10-20T21:48:45.457Z,100662.22
2022-10-20T21:51:14.583Z,100667.81
2022-10-20T21:53:41.939Z,100668.47
2022-10-20T21:56:09.744Z,100671.25
2022-10-20T21:58:37.303Z,100660.87
2022-10-20T22:01:15.502Z,100660.28
2022-10-20T22:03:43.655Z,100662.12
2022-10-20T22:06:11.455Z,100656.75
2022-10-20T22:08:39.863Z,100648.31
2022-10-20T22:11:15.696Z,100658.13
2022-10-20T22:13:43.049Z,100653.91
2022-10-20T22:16:12.874Z,100659.44
2022-10-20T22:18:40.214Z,100656.03
2022-10-20T22:21:12.469Z,100658.00
2022-10-20T22:23:41.853Z,100658.44
2022-10-20T22:26:09.303Z,100659.69
2022-10-20T22:28:37.071Z,100654.94
2022-10-20T22:31:05.618Z,100656.78
2022-10-20T22:33:33.063Z,100666.25
2022-10-20T22:36:00.399Z,100658.47
2022-10-20T22:38:27.973Z,100662.53
2022-10-20T22:41:01.654Z,100656.16
2022-10-20T22:43:29.535Z,100657.78
2022-10-20T22:45:57.057Z,100662.41
2022-10-20T22:48:24.455Z,100665.56
2022-10-20T22:50:52.144Z,100660.09
2022-10-20T22:53:19.637Z,100666.56
2022-10-20T22:55:47.994Z,100664.37
2022-10-20T22:58:15.585Z,100665.06
2022-10-20T23:00:43.811Z,100661.97
2022-10-20T23:03:11.243Z,100662.53
2022-10-20T23:05:38.845Z,100656.09
2022-10-20T23:08:06.342Z,100653.28
2022-10-20T23:10:33.662Z,100657.09
2022-10-20T23:13:01.268Z,100652.16
2022-10-20T23:15:28.613Z,100637.69
2022-10-20T23:17:55.962Z,100638.38
2022-10-20T23:20:23.540Z,100634.56
2022-10-20T23:22:50.892Z,100641.75
2022-10-20T23:25:18.208Z,100649.41
2022-10-20T23:27:45.769Z,100648.78
2022-10-20T23:30:13.151Z,100643.87
2022-10-20T23:32:40.539Z,100654.63
2022-10-20T23:35:08.442Z,100646.16
2022-10-20T23:37:38.193Z,100645.84
2022-10-20T23:40:06.302Z,100645.69
2022-10-20T23:42:33.865Z,100645.28
2022-10-20T23:45:02.511Z,100639.06
2022-10-20T23:47:29.829Z,100642.38
2022-10-20T23:49:57.414Z,100638.84
2022-10-20T23:52:24.759Z,100636.56
2022-10-20T23:54:52.090Z,100645.94
2022-10-20T23:57:19.731Z,100642.78
2022-10-20T23:59:47.041Z,100645.75
